sensor_id;sensor_type;location;lat;lon;timestamp;temperature;humidity
38798;SHT11;24546;52.240;16.826;2022-11-12T00:03:11;8.40;99.90
38798;SHT11;24546;52.240;16.826;2022-11-12T00:08:36;8.20;99.90
38798;SHT11;24546;52.240;16.826;2022-11-12T00:13:59;8.20;99.90
38798;SHT11;24546;52.240;16.826;2022-11-12T00:19:19;8.10;99.90
38798;SHT11;24546;52.240;16.826;2022-11-12T00:24:45;8.10;99.90
38798;SHT11;24546;52.240;16.826;2022-11-12T00:30:10;8.00;99.90
38798;SHT11;24546;52.240;16.826;2022-11-12T00:35:31;8.00;99.90
38798;SHT11;24546;52.240;16.826;2022-11-12T00:40:53;7.90;99.90
38798;SHT11;24546;52.240;16.826;2022-11-12T00:46:12;7.80;99.90
38798;SHT11;24546;52.240;16.826;2022-11-12T00:51:34;7.70;99.90
38798;SHT11;24546;52.240;16.826;2022-11-12T00:56:58;7.60;99.90
38798;SHT11;24546;52.240;16.826;2022-11-12T01:02:19;7.50;99.90
38798;SHT11;24546;52.240;16.826;2022-11-12T01:07:42;7.50;99.90
38798;SHT11;24546;52.240;16.826;2022-11-12T01:13:06;7.40;99.90
38798;SHT11;24546;52.240;16.826;2022-11-12T01:18:26;7.30;99.90
38798;SHT11;24546;52.240;16.826;2022-11-12T01:23:46;7.20;99.90
38798;SHT11;24546;52.240;16.826;2022-11-12T01:29:06;7.10;99.90
38798;SHT11;24546;52.240;16.826;2022-11-12T01:34:26;7.10;99.90
38798;SHT11;24546;52.240;16.826;2022-11-12T01:39:46;7.00;99.90
38798;SHT11;24546;52.240;16.826;2022-11-12T01:45:13;7.00;99.90
38798;SHT11;24546;52.240;16.826;2022-11-12T01:50:37;7.00;99.90
38798;SHT11;24546;52.240;16.826;2022-11-12T01:55:59;6.80;99.90
38798;SHT11;24546;52.240;16.826;2022-11-12T02:01:19;6.70;99.90
38798;SHT11;24546;52.240;16.826;2022-11-12T02:06:40;6.60;99.90
38798;SHT11;24546;52.240;16.826;2022-11-12T02:12:02;6.60;99.90
38798;SHT11;24546;52.240;16.826;2022-11-12T02:17:22;6.50;99.90
38798;SHT11;24546;52.240;16.826;2022-11-12T02:22:41;6.50;99.90
38798;SHT11;24546;52.240;16.826;2022-11-12T02:28:06;6.40;99.90
38798;SHT11;24546;52.240;16.826;2022-11-12T02:33:27;6.40;99.90
38798;SHT11;24546;52.240;16.826;2022-11-12T02:38:46;6.30;99.90
38798;SHT11;24546;52.240;16.826;2022-11-12T02:44:06;6.30;99.90
38798;SHT11;24546;52.240;16.826;2022-11-12T02:49:28;6.20;99.90
38798;SHT11;24546;52.240;16.826;2022-11-12T02:54:48;6.40;99.90
38798;SHT11;24546;52.240;16.826;2022-11-12T03:00:10;6.10;99.90
38798;SHT11;24546;52.240;16.826;2022-11-12T03:05:33;6.10;99.90
38798;SHT11;24546;52.240;16.826;2022-11-12T03:10:54;6.00;99.90
38798;SHT11;24546;52.240;16.826;2022-11-12T03:16:13;5.90;99.90
38798;SHT11;24546;52.240;16.826;2022-11-12T03:21:33;5.90;99.90
38798;SHT11;24546;52.240;16.826;2022-11-12T03:26:53;5.80;99.90
38798;SHT11;24546;52.240;16.826;2022-11-12T03:32:13;5.90;99.90
38798;SHT11;24546;52.240;16.826;2022-11-12T03:37:32;5.70;99.90
38798;SHT11;24546;52.240;16.826;2022-11-12T03:42:52;5.70;99.90
38798;SHT11;24546;52.240;16.826;2022-11-12T03:48:12;5.60;99.90
38798;SHT11;24546;52.240;16.826;2022-11-12T03:53:32;5.50;99.90
38798;SHT11;24546;52.240;16.826;2022-11-12T03:58:54;5.50;99.90
38798;SHT11;24546;52.240;16.826;2022-11-12T04:04:13;5.80;99.90
38798;SHT11;24546;52.240;16.826;2022-11-12T04:09:33;5.70;99.90
38798;SHT11;24546;52.240;16.826;2022-11-12T04:14:53;5.40;99.90
38798;SHT11;24546;52.240;16.826;2022-11-12T04:20:13;5.50;99.90
38798;SHT11;24546;52.240;16.826;2022-11-12T04:25:51;5.30;99.90
38798;SHT11;24546;52.240;16.826;2022-11-12T04:31:29;5.30;99.90
38798;SHT11;24546;52.240;16.826;2022-11-12T04:36:49;5.10;99.90
38798;SHT11;24546;52.240;16.826;2022-11-12T04:42:09;5.20;99.90
38798;SHT11;24546;52.240;16.826;2022-11-12T04:47:48;5.10;99.90
38798;SHT11;24546;52.240;16.826;2022-11-12T04:53:07;5.10;99.90
38798;SHT11;24546;52.240;16.826;2022-11-12T04:58:27;5.10;99.90
38798;SHT11;24546;52.240;16.826;2022-11-12T05:03:46;5.10;99.90
38798;SHT11;24546;52.240;16.826;2022-11-12T05:09:06;5.00;99.90
38798;SHT11;24546;52.240;16.826;2022-11-12T05:14:25;5.00;99.90
38798;SHT11;24546;52.240;16.826;2022-11-12T05:19:45;4.90;99.90
38798;SHT11;24546;52.240;16.826;2022-11-12T05:25:06;4.90;99.90
38798;SHT11;24546;52.240;16.826;2022-11-12T05:30:26;4.90;99.90
38798;SHT11;24546;52.240;16.826;2022-11-12T05:35:45;4.90;99.90
38798;SHT11;24546;52.240;16.826;2022-11-12T05:41:08;4.90;99.90
38798;SHT11;24546;52.240;16.826;2022-11-12T05:46:31;4.90;99.90
38798;SHT11;24546;52.240;16.826;2022-11-12T05:51:50;5.00;99.90
38798;SHT11;24546;52.240;16.826;2022-11-12T05:57:10;5.10;99.90
38798;SHT11;24546;52.240;16.826;2022-11-12T06:02:29;5.20;99.90
38798;SHT11;24546;52.240;16.826;2022-11-12T06:07:49;5.30;99.90
38798;SHT11;24546;52.240;16.826;2022-11-12T06:13:09;5.40;99.90
38798;SHT11;24546;52.240;16.826;2022-11-12T06:18:29;5.40;99.90
38798;SHT11;24546;52.240;16.826;2022-11-12T06:23:50;5.50;99.90
38798;SHT11;24546;52.240;16.826;2022-11-12T06:29:10;5.60;99.90
38798;SHT11;24546;52.240;16.826;2022-11-12T06:34:30;5.70;99.90
38798;SHT11;24546;52.240;16.826;2022-11-12T06:39:50;5.90;99.90
38798;SHT11;24546;52.240;16.826;2022-11-12T06:45:10;6.00;99.90
38798;SHT11;24546;52.240;16.826;2022-11-12T06:50:29;6.20;99.90
38798;SHT11;24546;52.240;16.826;2022-11-12T06:55:49;6.20;99.90
38798;SHT11;24546;52.240;16.826;2022-11-12T07:01:16;6.40;99.90
38798;SHT11;24546;52.240;16.826;2022-11-12T07:06:36;6.50;99.90
38798;SHT11;24546;52.240;16.826;2022-11-12T07:11:55;6.60;99.90
38798;SHT11;24546;52.240;16.826;2022-11-12T07:17:15;6.70;99.90
38798;SHT11;24546;52.240;16.826;2022-11-12T07:22:35;6.80;99.90
38798;SHT11;24546;52.240;16.826;2022-11-12T07:27:55;6.90;99.90
38798;SHT11;24546;52.240;16.826;2022-11-12T07:33:15;7.10;99.90
38798;SHT11;24546;52.240;16.826;2022-11-12T07:38:37;7.50;99.90
38798;SHT11;24546;52.240;16.826;2022-11-12T07:43:57;7.30;99.90
38798;SHT11;24546;52.240;16.826;2022-11-12T07:49:17;7.50;99.90
38798;SHT11;24546;52.240;16.826;2022-11-12T07:54:38;7.70;99.90
38798;SHT11;24546;52.240;16.826;2022-11-12T08:00:03;7.90;99.90
38798;SHT11;24546;52.240;16.826;2022-11-12T08:05:23;8.00;99.90
38798;SHT11;24546;52.240;16.826;2022-11-12T08:10:44;8.20;99.90
38798;SHT11;24546;52.240;16.826;2022-11-12T08:16:23;8.30;99.90
38798;SHT11;24546;52.240;16.826;2022-11-12T08:21:42;8.50;99.90
38798;SHT11;24546;52.240;16.826;2022-11-12T08:27:06;8.60;99.90
38798;SHT11;24546;52.240;16.826;2022-11-12T08:32:26;8.70;99.90
38798;SHT11;24546;52.240;16.826;2022-11-12T08:37:46;8.80;99.90
38798;SHT11;24546;52.240;16.826;2022-11-12T08:43:09;9.00;99.90
38798;SHT11;24546;52.240;16.826;2022-11-12T08:48:29;9.00;99.90
38798;SHT11;24546;52.240;16.826;2022-11-12T08:53:59;9.20;99.90
38798;SHT11;24546;52.240;16.826;2022-11-12T08:59:20;9.30;99.90
38798;SHT11;24546;52.240;16.826;2022-11-12T09:04:45;9.40;99.90
38798;SHT11;24546;52.240;16.826;2022-11-12T09:10:14;9.60;99.90
38798;SHT11;24546;52.240;16.826;2022-11-12T09:15:35;9.60;99.90
38798;SHT11;24546;52.240;16.826;2022-11-12T09:21:38;9.70;99.90
38798;SHT11;24546;52.240;16.826;2022-11-12T09:26:59;9.80;99.90
38798;SHT11;24546;52.240;16.826;2022-11-12T09:32:20;9.90;99.90
38798;SHT11;24546;52.240;16.826;2022-11-12T09:37:42;9.80;99.90
38798;SHT11;24546;52.240;16.826;2022-11-12T09:48:58;10.00;99.90
38798;SHT11;24546;52.240;16.826;2022-11-12T09:54:40;10.10;99.90
38798;SHT11;24546;52.240;16.826;2022-11-12T10:00:27;10.40;99.90
38798;SHT11;24546;52.240;16.826;2022-11-12T10:06:00;10.50;99.90
38798;SHT11;24546;52.240;16.826;2022-11-12T10:17:41;10.70;99.90
38798;SHT11;24546;52.240;16.826;2022-11-12T10:23:21;10.90;99.90
38798;SHT11;24546;52.240;16.826;2022-11-12T10:28:47;11.00;99.90
38798;SHT11;24546;52.240;16.826;2022-11-12T10:34:18;11.00;99.90
38798;SHT11;24546;52.240;16.826;2022-11-12T10:39:41;11.10;99.90
38798;SHT11;24546;52.240;16.826;2022-11-12T10:45:19;11.30;99.90
38798;SHT11;24546;52.240;16.826;2022-11-12T10:51:16;11.40;99.90
38798;SHT11;24546;52.240;16.826;2022-11-12T10:57:04;11.40;99.90
38798;SHT11;24546;52.240;16.826;2022-11-12T11:02:52;11.60;99.90
38798;SHT11;24546;52.240;16.826;2022-11-12T11:14:27;11.80;99.90
38798;SHT11;24546;52.240;16.826;2022-11-12T11:19:51;11.90;99.90
38798;SHT11;24546;52.240;16.826;2022-11-12T11:25:20;11.90;99.90
38798;SHT11;24546;52.240;16.826;2022-11-12T11:30:51;11.90;99.90
38798;SHT11;24546;52.240;16.826;2022-11-12T11:36:35;11.90;99.90
38798;SHT11;24546;52.240;16.826;2022-11-12T11:42:06;12.00;99.90
38798;SHT11;24546;52.240;16.826;2022-11-12T11:47:53;12.10;99.90
38798;SHT11;24546;52.240;16.826;2022-11-12T11:53:31;12.20;99.90
38798;SHT11;24546;52.240;16.826;2022-11-12T12:04:30;12.60;99.90
38798;SHT11;24546;52.240;16.826;2022-11-12T12:21:08;12.70;99.90
38798;SHT11;24546;52.240;16.826;2022-11-12T12:26:43;12.80;99.90
38798;SHT11;24546;52.240;16.826;2022-11-12T12:37:58;12.80;99.90
38798;SHT11;24546;52.240;16.826;2022-11-12T12:43:32;12.80;99.90
38798;SHT11;24546;52.240;16.826;2022-11-12T12:48:54;12.80;99.90
38798;SHT11;24546;52.240;16.826;2022-11-12T13:06:05;12.90;99.90
38798;SHT11;24546;52.240;16.826;2022-11-12T13:17:45;12.90;99.90
38798;SHT11;24546;52.240;16.826;2022-11-12T13:23:10;13.00;99.90
38798;SHT11;24546;52.240;16.826;2022-11-12T13:28:32;12.90;99.90
38798;SHT11;24546;52.240;16.826;2022-11-12T13:33:52;12.90;99.90
38798;SHT11;24546;52.240;16.826;2022-11-12T13:39:17;13.00;99.90
38798;SHT11;24546;52.240;16.826;2022-11-12T13:44:38;13.00;99.90
38798;SHT11;24546;52.240;16.826;2022-11-12T13:49:59;13.00;99.90
38798;SHT11;24546;52.240;16.826;2022-11-12T13:55:21;13.10;99.90
38798;SHT11;24546;52.240;16.826;2022-11-12T14:00:56;13.00;99.90
38798;SHT11;24546;52.240;16.826;2022-11-12T14:06:27;12.80;99.90
38798;SHT11;24546;52.240;16.826;2022-11-12T14:18:06;13.00;99.90
38798;SHT11;24546;52.240;16.826;2022-11-12T14:23:31;13.20;99.90
38798;SHT11;24546;52.240;16.826;2022-11-12T14:28:55;13.00;99.90
38798;SHT11;24546;52.240;16.826;2022-11-12T14:34:32;13.00;99.90
38798;SHT11;24546;52.240;16.826;2022-11-12T14:39:51;13.00;99.90
38798;SHT11;24546;52.240;16.826;2022-11-12T14:45:22;13.00;99.90
38798;SHT11;24546;52.240;16.826;2022-11-12T14:50:51;12.90;99.90
38798;SHT11;24546;52.240;16.826;2022-11-12T14:56:36;12.90;99.90
38798;SHT11;24546;52.240;16.826;2022-11-12T15:07:38;12.80;99.90
38798;SHT11;24546;52.240;16.826;2022-11-12T15:13:15;12.80;99.90
38798;SHT11;24546;52.240;16.826;2022-11-12T15:18:37;12.70;99.90
38798;SHT11;24546;52.240;16.826;2022-11-12T15:24:05;12.60;99.90
38798;SHT11;24546;52.240;16.826;2022-11-12T15:29:35;12.70;99.90
38798;SHT11;24546;52.240;16.826;2022-11-12T15:35:02;12.70;99.90
38798;SHT11;24546;52.240;16.826;2022-11-12T15:40:29;12.60;99.90
38798;SHT11;24546;52.240;16.826;2022-11-12T15:45:58;12.60;99.90
38798;SHT11;24546;52.240;16.826;2022-11-12T15:51:48;12.60;99.90
38798;SHT11;24546;52.240;16.826;2022-11-12T15:57:21;12.60;99.90
38798;SHT11;24546;52.240;16.826;2022-11-12T16:03:20;12.50;99.90
38798;SHT11;24546;52.240;16.826;2022-11-12T16:08:56;12.40;99.90
38798;SHT11;24546;52.240;16.826;2022-11-12T16:14:23;12.40;99.90
38798;SHT11;24546;52.240;16.826;2022-11-12T16:19:58;12.40;99.90
38798;SHT11;24546;52.240;16.826;2022-11-12T16:25:30;12.50;99.90
38798;SHT11;24546;52.240;16.826;2022-11-12T16:31:26;12.40;99.90
38798;SHT11;24546;52.240;16.826;2022-11-12T16:36:53;12.40;99.90
38798;SHT11;24546;52.240;16.826;2022-11-12T16:42:25;12.40;99.90
38798;SHT11;24546;52.240;16.826;2022-11-12T16:47:51;12.40;99.90
38798;SHT11;24546;52.240;16.826;2022-11-12T16:53:50;12.40;99.90
38798;SHT11;24546;52.240;16.826;2022-11-12T16:59:52;12.40;99.90
38798;SHT11;24546;52.240;16.826;2022-11-12T17:05:22;12.40;99.90
38798;SHT11;24546;52.240;16.826;2022-11-12T17:11:02;12.30;99.90
38798;SHT11;24546;52.240;16.826;2022-11-12T17:16:49;12.30;99.90
38798;SHT11;24546;52.240;16.826;2022-11-12T17:23:02;12.30;99.90
38798;SHT11;24546;52.240;16.826;2022-11-12T17:28:32;12.30;99.90
38798;SHT11;24546;52.240;16.826;2022-11-12T17:34:02;12.30;99.90
38798;SHT11;24546;52.240;16.826;2022-11-12T17:39:31;12.30;99.90
38798;SHT11;24546;52.240;16.826;2022-11-12T17:45:09;12.30;99.90
38798;SHT11;24546;52.240;16.826;2022-11-12T17:51:11;12.30;99.90
38798;SHT11;24546;52.240;16.826;2022-11-12T17:56:32;12.30;99.90
38798;SHT11;24546;52.240;16.826;2022-11-12T18:02:18;12.30;99.90
38798;SHT11;24546;52.240;16.826;2022-11-12T18:08:04;12.20;99.90
38798;SHT11;24546;52.240;16.826;2022-11-12T18:13:47;12.20;99.90
38798;SHT11;24546;52.240;16.826;2022-11-12T18:19:17;12.20;99.90
38798;SHT11;24546;52.240;16.826;2022-11-12T18:25:06;12.20;99.90
38798;SHT11;24546;52.240;16.826;2022-11-12T18:31:03;12.20;99.90
38798;SHT11;24546;52.240;16.826;2022-11-12T18:37:10;12.20;99.90
38798;SHT11;24546;52.240;16.826;2022-11-12T18:42:44;12.20;99.90
38798;SHT11;24546;52.240;16.826;2022-11-12T18:48:43;12.20;99.90
38798;SHT11;24546;52.240;16.826;2022-11-12T18:54:13;12.00;99.90
38798;SHT11;24546;52.240;16.826;2022-11-12T18:59:41;12.20;99.90
38798;SHT11;24546;52.240;16.826;2022-11-12T19:05:17;12.10;99.90
38798;SHT11;24546;52.240;16.826;2022-11-12T19:11:01;12.10;99.90
38798;SHT11;24546;52.240;16.826;2022-11-12T19:16:22;12.10;99.90
38798;SHT11;24546;52.240;16.826;2022-11-12T19:22:21;12.20;99.90
38798;SHT11;24546;52.240;16.826;2022-11-12T19:28:01;12.20;99.90
38798;SHT11;24546;52.240;16.826;2022-11-12T19:33:23;12.20;99.90
38798;SHT11;24546;52.240;16.826;2022-11-12T19:39:09;12.20;99.90
38798;SHT11;24546;52.240;16.826;2022-11-12T19:44:44;12.10;99.90
38798;SHT11;24546;52.240;16.826;2022-11-12T19:50:05;12.10;99.90
38798;SHT11;24546;52.240;16.826;2022-11-12T19:55:36;12.10;99.90
38798;SHT11;24546;52.240;16.826;2022-11-12T20:01:21;12.10;99.90
38798;SHT11;24546;52.240;16.826;2022-11-12T20:06:44;12.10;99.90
38798;SHT11;24546;52.240;16.826;2022-11-12T20:12:30;12.10;99.90
38798;SHT11;24546;52.240;16.826;2022-11-12T20:18:00;12.40;99.90
38798;SHT11;24546;52.240;16.826;2022-11-12T20:23:59;12.10;99.90
38798;SHT11;24546;52.240;16.826;2022-11-12T20:29:48;12.10;99.90
38798;SHT11;24546;52.240;16.826;2022-11-12T20:35:35;12.20;99.90
38798;SHT11;24546;52.240;16.826;2022-11-12T20:41:04;12.10;99.90
38798;SHT11;24546;52.240;16.826;2022-11-12T20:46:47;12.20;99.90
38798;SHT11;24546;52.240;16.826;2022-11-12T20:52:12;12.10;99.90
38798;SHT11;24546;52.240;16.826;2022-11-12T20:58:02;12.10;99.90
38798;SHT11;24546;52.240;16.826;2022-11-12T21:03:32;12.10;99.90
38798;SHT11;24546;52.240;16.826;2022-11-12T21:09:17;12.10;99.90
38798;SHT11;24546;52.240;16.826;2022-11-12T21:14:44;12.10;99.90
38798;SHT11;24546;52.240;16.826;2022-11-12T21:20:16;12.20;99.90
38798;SHT11;24546;52.240;16.826;2022-11-12T21:25:41;12.40;99.90
38798;SHT11;24546;52.240;16.826;2022-11-12T21:31:15;12.10;99.90
38798;SHT11;24546;52.240;16.826;2022-11-12T21:36:55;12.10;99.90
38798;SHT11;24546;52.240;16.826;2022-11-12T21:42:35;12.10;99.90
38798;SHT11;24546;52.240;16.826;2022-11-12T21:48:10;12.20;99.90
38798;SHT11;24546;52.240;16.826;2022-11-12T21:54:02;12.10;99.90
38798;SHT11;24546;52.240;16.826;2022-11-12T22:06:10;12.20;99.90
38798;SHT11;24546;52.240;16.826;2022-11-12T22:12:12;12.20;99.90
38798;SHT11;24546;52.240;16.826;2022-11-12T22:17:48;12.10;99.90
38798;SHT11;24546;52.240;16.826;2022-11-12T22:23:43;12.10;99.90
38798;SHT11;24546;52.240;16.826;2022-11-12T22:29:39;12.10;99.90
38798;SHT11;24546;52.240;16.826;2022-11-12T22:35:27;12.10;99.90
38798;SHT11;24546;52.240;16.826;2022-11-12T22:41:14;12.10;99.90
38798;SHT11;24546;52.240;16.826;2022-11-12T22:46:59;12.10;99.90
38798;SHT11;24546;52.240;16.826;2022-11-12T22:52:31;12.10;99.90
38798;SHT11;24546;52.240;16.826;2022-11-12T22:58:05;12.10;99.90
38798;SHT11;24546;52.240;16.826;2022-11-12T23:03:38;12.10;99.90
38798;SHT11;24546;52.240;16.826;2022-11-12T23:09:22;12.10;99.90
38798;SHT11;24546;52.240;16.826;2022-11-12T23:15:23;12.10;99.90
38798;SHT11;24546;52.240;16.826;2022-11-12T23:21:21;12.10;99.90
38798;SHT11;24546;52.240;16.826;2022-11-12T23:26:49;12.10;99.90
38798;SHT11;24546;52.240;16.826;2022-11-12T23:32:26;12.10;99.90
38798;SHT11;24546;52.240;16.826;2022-11-12T23:38:36;12.10;99.90
38798;SHT11;24546;52.240;16.826;2022-11-12T23:44:08;12.10;99.90
38798;SHT11;24546;52.240;16.826;2022-11-12T23:50:30;12.10;99.90
38798;SHT11;24546;52.240;16.826;2022-11-12T23:56:24;12.10;99.90
